Time;durP1;ratioP1;P1;durP2;ratioP2;P2;SDS_P1;SDS_P2;PMS_P1;PMS_P2;Temp;Humidity;BMP_temperature;BMP_pressure;BME280_temperature;BME280_humidity;BME280_pressure;Samples;Min_cycle;Max_cycle;Signal;HPM_P1;HPM_P2
2022/01/27 00:01:32;;;;;;;25.05;12.27;;;;;;;;;;6006708;29;20050;-79
2022/01/27 00:04:48;;;;;;;26.70;12.65;;;;;;;;;;6008143;29;20114;-79
2022/01/27 00:08:08;;;;;;;25.33;12.75;;;;;;;;;;6006859;29;20050;-77
2022/01/27 00:11:13;;;;;;;24.77;12.75;;;;;;;;;;6007799;29;20057;-76
2022/01/27 00:14:19;;;;;;;29.90;15.07;;;;;;;;;;6006249;29;20110;-78
2022/01/27 00:17:28;;;;;;;29.02;13.43;;;;;;;;;;6008207;29;20058;-78
2022/01/27 00:20:33;;;;;;;24.15;11.80;;;;;;;;;;6008148;29;20146;-79
2022/01/27 00:23:40;;;;;;;26.63;12.45;;;;;;;;;;6008486;29;20060;-78
2022/01/27 00:26:46;;;;;;;28.92;14.05;;;;;;;;;;6006455;29;20058;-80
2022/01/27 00:29:49;;;;;;;30.90;14.05;;;;;;;;;;6008858;29;20073;-79
2022/01/27 00:32:55;;;;;;;;;;;;;;;;;;6008670;29;20050;-79
2022/01/27 00:35:58;;;;;;;27.95;12.20;;;;;;;;;;6005947;29;19924;-80
2022/01/27 00:39:03;;;;;;;26.52;13.55;;;;;;;;;;6007833;29;20508;-78
2022/01/27 00:42:06;;;;;;;28.13;13.37;;;;;;;;;;6007295;29;20077;-78
2022/01/27 00:45:12;;;;;;;31.35;13.27;;;;;;;;;;6007596;29;20049;-77
2022/01/27 00:48:17;;;;;;;28.23;13.35;;;;;;;;;;6007019;29;20048;-76
2022/01/27 00:51:25;;;;;;;33.50;13.50;;;;;;;;;;6008405;29;20490;-76
2022/01/27 00:54:28;;;;;;;;;;;;;;;;;;6007566;29;20049;-78
2022/01/27 00:57:46;;;;;;;27.55;13.52;;;;;;;;;;6004929;29;19928;-81
2022/01/27 01:00:55;;;;;;;28.58;13.30;;;;;;;;;;6006952;29;20052;-81
2022/01/27 01:04:02;;;;;;;30.15;14.40;;;;;;;;;;6008045;29;20378;-79
2022/01/27 01:07:06;;;;;;;32.58;15.25;;;;;;;;;;6007278;29;20046;-79
2022/01/27 01:17:09;;;;;;;28.48;13.95;;;;;;;;;;5920924;29;20605;-79
2022/01/27 01:20:44;;;;;;;26.98;13.05;;;;;;;;;;6005715;29;20493;-78
2022/01/27 01:30:49;;;;;;;26.13;12.30;;;;;;;;;;5997341;29;20474;-78
2022/01/27 01:33:58;;;;;;;29.25;13.15;;;;;;;;;;6006257;29;20053;-79
2022/01/27 01:37:04;;;;;;;27.13;12.27;;;;;;;;;;6004645;29;20049;-79
2022/01/27 01:40:08;;;;;;;27.42;13.15;;;;;;;;;;6007132;29;20140;-78
2022/01/27 01:43:11;;;;;;;28.98;14.00;;;;;;;;;;6007329;29;20418;-78
2022/01/27 01:46:16;;;;;;;28.77;12.65;;;;;;;;;;6005522;29;20061;-79
2022/01/27 01:49:22;;;;;;;25.70;12.75;;;;;;;;;;6005602;29;20081;-79
2022/01/27 01:52:28;;;;;;;27.10;13.63;;;;;;;;;;6005898;29;20069;-80
2022/01/27 01:55:31;;;;;;;26.77;13.10;;;;;;;;;;6006933;29;20053;-77
2022/01/27 01:58:35;;;;;;;29.80;12.88;;;;;;;;;;6003697;29;20049;-76
2022/01/27 02:01:41;;;;;;;29.27;13.63;;;;;;;;;;6006803;29;20046;-81
2022/01/27 02:04:46;;;;;;;26.35;11.88;;;;;;;;;;6005766;29;20322;-78
2022/01/27 02:07:59;;;;;;;27.65;12.77;;;;;;;;;;5990055;29;20062;-79
2022/01/27 02:18:03;;;;;;;26.35;13.32;;;;;;;;;;6004582;29;20046;-82
2022/01/27 02:21:10;;;;;;;23.48;11.93;;;;;;;;;;6005906;29;20049;-80
2022/01/27 02:24:13;;;;;;;27.73;13.80;;;;;;;;;;6004424;29;20523;-86
2022/01/27 02:27:19;;;;;;;26.75;13.55;;;;;;;;;;6010596;29;20379;-82
2022/01/27 02:30:23;;;;;;;27.38;13.57;;;;;;;;;;6010279;29;20441;-89
2022/01/27 02:33:30;;;;;;;27.50;12.60;;;;;;;;;;6007532;29;20057;-91
2022/01/27 02:36:34;;;;;;;27.15;14.13;;;;;;;;;;6008700;29;20133;-89
2022/01/27 02:39:38;;;;;;;24.27;12.05;;;;;;;;;;6009348;29;20054;-91
2022/01/27 02:42:40;;;;;;;31.90;13.10;;;;;;;;;;6012293;29;20056;-91
2022/01/27 02:45:46;;;;;;;25.58;12.15;;;;;;;;;;6013084;29;20050;-88
2022/01/27 02:48:49;;;;;;;26.70;12.17;;;;;;;;;;6010698;29;20137;-78
2022/01/27 02:51:54;;;;;;;27.33;12.90;;;;;;;;;;6009661;29;20050;-77
2022/01/27 02:54:57;;;;;;;27.90;13.30;;;;;;;;;;6007691;29;20049;-76
2022/01/27 02:58:03;;;;;;;;;;;;;;;;;;6009737;29;20052;-77
2022/01/27 03:01:07;;;;;;;24.38;12.27;;;;;;;;;;6010896;29;19963;-78
2022/01/27 03:04:10;;;;;;;25.90;12.30;;;;;;;;;;6009347;29;20453;-78
2022/01/27 03:07:15;;;;;;;26.52;12.10;;;;;;;;;;6008711;29;20124;-82
2022/01/27 03:10:20;;;;;;;28.85;13.00;;;;;;;;;;6010795;29;20458;-83
2022/01/27 03:13:23;;;;;;;24.83;12.43;;;;;;;;;;6008873;29;20046;-81
2022/01/27 03:16:27;;;;;;;27.83;12.95;;;;;;;;;;6007654;29;20642;-78
2022/01/27 03:19:30;;;;;;;28.30;13.15;;;;;;;;;;6009171;29;20128;-79
2022/01/27 03:22:35;;;;;;;27.73;13.38;;;;;;;;;;6008979;29;20046;-78
2022/01/27 03:25:39;;;;;;;26.08;12.38;;;;;;;;;;6009689;29;20054;-78
2022/01/27 03:28:46;;;;;;;28.45;13.45;;;;;;;;;;6008561;29;20489;-79
2022/01/27 03:31:50;;;;;;;25.88;12.73;;;;;;;;;;6010117;29;20069;-79
2022/01/27 03:34:54;;;;;;;25.98;13.40;;;;;;;;;;6008096;29;20057;-79
2022/01/27 03:37:59;;;;;;;26.63;12.95;;;;;;;;;;6008511;29;20054;-79
2022/01/27 03:41:06;;;;;;;27.33;12.38;;;;;;;;;;6008563;29;20054;-79
2022/01/27 03:44:09;;;;;;;23.85;12.30;;;;;;;;;;6008657;29;20481;-83
2022/01/27 03:47:13;;;;;;;24.92;12.20;;;;;;;;;;6007032;29;20046;-82
2022/01/27 03:50:16;;;;;;;22.13;11.38;;;;;;;;;;6009545;29;20049;-83
2022/01/27 03:53:23;;;;;;;25.27;11.50;;;;;;;;;;6008567;29;20054;-80
2022/01/27 03:56:26;;;;;;;24.23;11.88;;;;;;;;;;6008215;29;20049;-80
2022/01/27 03:59:30;;;;;;;27.70;12.38;;;;;;;;;;6007339;29;20512;-81
2022/01/27 04:02:35;;;;;;;25.42;11.45;;;;;;;;;;6008311;29;20057;-81
2022/01/27 04:05:41;;;;;;;22.90;10.52;;;;;;;;;;6008041;29;20061;-79
2022/01/27 04:08:46;;;;;;;23.20;11.73;;;;;;;;;;6007717;29;20541;-80
2022/01/27 04:11:50;;;;;;;21.63;10.32;;;;;;;;;;6009051;29;20050;-77
2022/01/27 04:14:53;;;;;;;22.65;10.60;;;;;;;;;;6007711;29;20137;-78
2022/01/27 04:17:56;;;;;;;21.00;11.20;;;;;;;;;;6006486;29;20318;-78
2022/01/27 04:20:59;;;;;;;21.80;10.85;;;;;;;;;;6008432;29;20261;-80
2022/01/27 04:24:04;;;;;;;23.23;10.82;;;;;;;;;;6007903;29;20050;-80
2022/01/27 04:27:16;;;;;;;22.33;10.60;;;;;;;;;;6008505;29;20053;-76
2022/01/27 04:30:22;;;;;;;18.00;9.35;;;;;;;;;;6007292;29;20077;-78
2022/01/27 04:33:28;;;;;;;19.98;10.43;;;;;;;;;;6007484;29;20053;-79
2022/01/27 04:36:35;;;;;;;22.77;11.38;;;;;;;;;;6008744;29;20054;-79
2022/01/27 04:39:45;;;;;;;23.00;11.63;;;;;;;;;;6005918;29;20056;-78
2022/01/27 04:42:56;;;;;;;21.70;11.88;;;;;;;;;;6005999;29;20540;-78
2022/01/27 04:46:07;;;;;;;23.75;12.18;;;;;;;;;;6006874;29;20054;-78
2022/01/27 04:49:12;;;;;;;20.02;10.45;;;;;;;;;;6007654;29;20046;-76
2022/01/27 04:52:17;;;;;;;20.65;11.13;;;;;;;;;;6005057;29;20439;-78
2022/01/27 04:55:24;;;;;;;23.38;11.57;;;;;;;;;;6007960;29;20080;-79
2022/01/27 04:58:31;;;;;;;;;;;;;;;;;;6008639;29;20136;-79
2022/01/27 05:01:39;;;;;;;25.65;12.32;;;;;;;;;;6007365;29;19931;-77
2022/01/27 05:04:46;;;;;;;23.25;11.68;;;;;;;;;;6006572;29;20096;-88
2022/01/27 05:07:56;;;;;;;25.63;11.60;;;;;;;;;;6008109;29;20058;-80
2022/01/27 05:11:05;;;;;;;24.23;12.30;;;;;;;;;;6006503;29;20046;-80
2022/01/27 05:14:14;;;;;;;24.00;11.68;;;;;;;;;;6004814;29;20058;-80
2022/01/27 05:17:19;;;;;;;25.30;12.23;;;;;;;;;;6005861;29;20086;-76
2022/01/27 05:20:23;;;;;;;23.70;10.05;;;;;;;;;;6005526;29;20058;-78
2022/01/27 05:23:29;;;;;;;26.70;12.85;;;;;;;;;;6006138;29;20049;-78
2022/01/27 05:26:36;;;;;;;23.70;11.23;;;;;;;;;;6006124;29;20046;-79
2022/01/27 05:29:39;;;;;;;24.95;12.02;;;;;;;;;;6006093;29;20107;-80
2022/01/27 05:32:43;;;;;;;26.92;11.43;;;;;;;;;;6006246;29;20053;-84
2022/01/27 05:35:46;;;;;;;24.45;12.77;;;;;;;;;;6004990;29;20508;-83
2022/01/27 05:38:51;;;;;;;23.25;12.13;;;;;;;;;;6006302;29;20046;-81
2022/01/27 05:41:56;;;;;;;25.23;12.30;;;;;;;;;;6005792;29;20054;-79
2022/01/27 05:45:00;;;;;;;28.27;14.80;;;;;;;;;;6004891;29;20064;-82
2022/01/27 05:48:03;;;;;;;29.95;13.82;;;;;;;;;;6004761;29;20049;-82
2022/01/27 05:51:08;;;;;;;;;;;;;;;;;;6006458;29;20379;-80
2022/01/27 05:54:11;;;;;;;27.20;13.35;;;;;;;;;;6005733;29;19932;-78
2022/01/27 05:57:17;;;;;;;29.30;13.82;;;;;;;;;;6004168;29;20086;-78
2022/01/27 06:00:20;;;;;;;30.25;14.45;;;;;;;;;;6005244;29;20132;-83
2022/01/27 06:03:24;;;;;;;28.20;14.00;;;;;;;;;;6005553;29;20062;-86
2022/01/27 06:06:27;;;;;;;31.42;13.95;;;;;;;;;;6004426;29;20046;-79
2022/01/27 06:09:30;;;;;;;26.25;14.10;;;;;;;;;;6006344;29;20463;-81
2022/01/27 06:12:47;;;;;;;31.08;14.10;;;;;;;;;;6005773;29;20054;-84
2022/01/27 06:15:51;;;;;;;30.00;14.80;;;;;;;;;;6005319;29;20053;-81
2022/01/27 06:18:57;;;;;;;28.80;14.10;;;;;;;;;;6004876;29;20183;-83
2022/01/27 06:22:00;;;;;;;30.35;14.52;;;;;;;;;;6003130;29;20451;-80
2022/01/27 06:25:04;;;;;;;25.77;14.85;;;;;;;;;;6003267;29;20448;-81
2022/01/27 06:28:09;;;;;;;28.70;14.90;;;;;;;;;;6002201;29;20114;-82
2022/01/27 06:31:12;;;;;;;26.80;13.77;;;;;;;;;;6003272;29;20058;-80
2022/01/27 06:34:16;;;;;;;29.63;14.65;;;;;;;;;;6004342;29;20103;-81
2022/01/27 06:37:19;;;;;;;28.40;13.88;;;;;;;;;;6004828;29;20123;-80
2022/01/27 06:40:23;;;;;;;27.42;14.02;;;;;;;;;;6003180;29;20060;-80
2022/01/27 06:43:28;;;;;;;24.42;12.82;;;;;;;;;;6005261;29;20485;-81
2022/01/27 06:46:32;;;;;;;25.77;13.73;;;;;;;;;;5990571;29;20058;-80
2022/01/27 06:49:38;;;;;;;28.23;13.68;;;;;;;;;;5989185;29;20045;-81
2022/01/27 06:52:42;;;;;;;26.80;13.25;;;;;;;;;;6006640;29;20050;-81
2022/01/27 06:55:45;;;;;;;29.10;14.65;;;;;;;;;;5990135;29;20054;-80
2022/01/27 06:58:50;;;;;;;25.38;13.23;;;;;;;;;;6004436;29;20572;-79
2022/01/27 07:01:54;;;;;;;26.63;13.23;;;;;;;;;;6004423;29;20131;-80
2022/01/27 07:04:58;;;;;;;26.05;13.38;;;;;;;;;;6006154;29;20100;-81
2022/01/27 07:08:01;;;;;;;27.58;12.90;;;;;;;;;;6006139;29;20053;-79
2022/01/27 07:11:05;;;;;;;26.10;12.90;;;;;;;;;;6005764;29;20050;-80
2022/01/27 07:14:11;;;;;;;27.88;13.48;;;;;;;;;;6009128;29;20530;-79
2022/01/27 07:17:18;;;;;;;26.95;12.52;;;;;;;;;;6010346;29;20050;-80
2022/01/27 07:20:21;;;;;;;24.58;12.00;;;;;;;;;;6007669;29;20072;-79
2022/01/27 07:23:24;;;;;;;21.25;11.82;;;;;;;;;;5992813;29;20050;-79
2022/01/27 07:26:28;;;;;;;26.23;13.23;;;;;;;;;;6008929;29;20510;-80
2022/01/27 07:29:33;;;;;;;25.33;12.15;;;;;;;;;;6008666;29;20074;-80
2022/01/27 07:32:39;;;;;;;26.67;13.48;;;;;;;;;;6007410;29;20450;-79
2022/01/27 07:35:43;;;;;;;23.85;11.98;;;;;;;;;;5991898;29;20065;-79
2022/01/27 07:38:48;;;;;;;27.10;12.82;;;;;;;;;;6007854;29;20054;-78
2022/01/27 07:41:52;;;;;;;25.17;12.85;;;;;;;;;;6005958;29;20110;-79
2022/01/27 07:45:00;;;;;;;26.25;13.63;;;;;;;;;;6005657;29;20058;-79
2022/01/27 07:48:04;;;;;;;27.13;12.68;;;;;;;;;;6006728;29;20054;-79
2022/01/27 07:51:08;;;;;;;29.08;12.63;;;;;;;;;;6006170;29;20050;-78
2022/01/27 07:54:11;;;;;;;28.92;12.85;;;;;;;;;;6005545;29;20387;-78
2022/01/27 07:57:16;;;;;;;27.50;13.32;;;;;;;;;;6008386;29;20058;-80
2022/01/27 08:00:23;;;;;;;25.20;12.35;;;;;;;;;;6008130;29;20064;-78
2022/01/27 08:03:29;;;;;;;26.95;12.98;;;;;;;;;;6006415;29;20573;-81
2022/01/27 08:06:32;;;;;;;24.67;12.25;;;;;;;;;;6008196;29;20057;-81
2022/01/27 08:09:36;;;;;;;25.40;13.38;;;;;;;;;;6009006;29;20057;-82
2022/01/27 08:12:39;;;;;;;28.80;13.73;;;;;;;;;;6007372;29;20454;-81
2022/01/27 08:15:44;;;;;;;26.10;13.07;;;;;;;;;;6008375;29;20066;-78
2022/01/27 08:19:07;;;;;;;27.40;13.43;;;;;;;;;;6007896;29;20042;-79
2022/01/27 08:22:11;;;;;;;26.35;13.13;;;;;;;;;;6006695;29;20054;-78
2022/01/27 08:25:15;;;;;;;27.08;12.93;;;;;;;;;;5990937;29;20516;-79
2022/01/27 08:28:28;;;;;;;25.88;13.38;;;;;;;;;;6006916;29;20178;-78
2022/01/27 08:31:42;;;;;;;26.48;12.10;;;;;;;;;;6008782;29;20062;-79
2022/01/27 08:34:47;;;;;;;26.75;13.88;;;;;;;;;;6006987;29;20137;-78
2022/01/27 08:37:51;;;;;;;24.88;12.32;;;;;;;;;;6005954;29;20069;-79
2022/01/27 08:40:54;;;;;;;26.83;12.73;;;;;;;;;;6007052;29;20137;-81
2022/01/27 08:43:58;;;;;;;23.25;11.70;;;;;;;;;;6006964;29;20057;-81
2022/01/27 08:47:04;;;;;;;22.80;12.38;;;;;;;;;;5990896;29;20046;-80
2022/01/27 08:50:09;;;;;;;24.20;11.65;;;;;;;;;;6006400;29;20050;-81
2022/01/27 08:53:13;;;;;;;25.40;11.70;;;;;;;;;;6007075;29;20056;-81
2022/01/27 08:56:17;;;;;;;24.70;12.48;;;;;;;;;;6006317;29;20050;-79
2022/01/27 08:59:22;;;;;;;27.27;11.55;;;;;;;;;;6005955;29;20057;-82
2022/01/27 09:02:27;;;;;;;24.63;11.95;;;;;;;;;;6006270;29;20560;-82
2022/01/27 09:05:31;;;;;;;22.20;12.88;;;;;;;;;;6006641;29;20098;-82
2022/01/27 09:08:35;;;;;;;21.58;11.38;;;;;;;;;;6005955;29;20045;-82
2022/01/27 09:11:46;;;;;;;24.38;11.10;;;;;;;;;;6006626;29;20500;-82
2022/01/27 09:14:50;;;;;;;22.85;11.02;;;;;;;;;;6006819;29;20038;-82
2022/01/27 09:17:56;;;;;;;22.17;10.75;;;;;;;;;;6005682;29;20046;-81
2022/01/27 09:21:01;;;;;;;25.70;10.82;;;;;;;;;;6005465;29;20049;-82
2022/01/27 09:24:06;;;;;;;23.33;10.80;;;;;;;;;;6006541;29;20046;-81
2022/01/27 09:27:10;;;;;;;24.13;11.97;;;;;;;;;;6006611;29;20449;-83
2022/01/27 09:30:15;;;;;;;23.25;11.25;;;;;;;;;;6005297;29;20066;-82
2022/01/27 09:33:20;;;;;;;25.13;11.30;;;;;;;;;;5991076;29;20050;-82
2022/01/27 09:36:23;;;;;;;26.63;11.77;;;;;;;;;;6007717;29;20197;-81
2022/01/27 09:39:27;;;;;;;23.23;11.23;;;;;;;;;;6005558;29;20110;-82
2022/01/27 09:42:33;;;;;;;24.50;11.20;;;;;;;;;;6005122;29;20054;-82
2022/01/27 09:45:38;;;;;;;23.63;12.70;;;;;;;;;;6005764;29;20054;-82
2022/01/27 09:48:47;;;;;;;25.27;12.20;;;;;;;;;;6007647;29;20132;-82
2022/01/27 09:51:50;;;;;;;25.23;12.18;;;;;;;;;;6005060;29;20042;-82
2022/01/27 09:54:58;;;;;;;23.40;12.07;;;;;;;;;;6006163;29;20054;-80
2022/01/27 09:58:02;;;;;;;26.17;12.65;;;;;;;;;;6006153;29;20068;-83
2022/01/27 10:01:05;;;;;;;24.95;11.73;;;;;;;;;;6004624;29;20045;-81
2022/01/27 10:04:11;;;;;;;;;;;;;;;;;;6005006;29;20054;-81
2022/01/27 10:07:17;;;;;;;22.63;11.55;;;;;;;;;;6005299;29;20368;-82
2022/01/27 10:10:21;;;;;;;;;;;;;;;;;;6005687;29;20058;-82
2022/01/27 10:13:30;;;;;;;27.30;11.93;;;;;;;;;;6005177;29;19929;-82
2022/01/27 10:16:40;;;;;;;21.25;10.50;;;;;;;;;;6005072;29;20091;-82
2022/01/27 10:19:53;;;;;;;18.73;9.90;;;;;;;;;;6005300;29;20073;-83
2022/01/27 10:23:10;;;;;;;19.75;10.45;;;;;;;;;;6004194;29;20114;-82
2022/01/27 10:26:15;;;;;;;21.30;10.25;;;;;;;;;;6004435;29;20132;-82
2022/01/27 10:29:36;;;;;;;20.77;9.95;;;;;;;;;;6004931;29;20050;-81
2022/01/27 10:32:41;;;;;;;24.73;11.00;;;;;;;;;;6006816;29;20054;-81
2022/01/27 10:35:45;;;;;;;22.17;11.25;;;;;;;;;;6004551;29;20405;-82
2022/01/27 10:38:52;;;;;;;20.55;9.68;;;;;;;;;;6004771;29;20046;-83
2022/01/27 10:41:56;;;;;;;24.00;11.05;;;;;;;;;;6006303;29;20046;-79
2022/01/27 10:45:07;;;;;;;24.15;11.48;;;;;;;;;;6006474;29;20086;-79
2022/01/27 10:48:18;;;;;;;21.17;11.00;;;;;;;;;;6009549;29;20565;-79
2022/01/27 10:51:25;;;;;;;23.48;11.32;;;;;;;;;;6009202;29;20137;-79
2022/01/27 10:54:38;;;;;;;28.55;12.85;;;;;;;;;;6009326;29;20436;-79
2022/01/27 10:57:44;;;;;;;24.63;11.38;;;;;;;;;;6009934;29;20049;-79
2022/01/27 11:00:47;;;;;;;26.92;11.90;;;;;;;;;;5993660;29;20046;-79
2022/01/27 11:03:51;;;;;;;24.52;12.27;;;;;;;;;;6008917;29;20065;-79
2022/01/27 11:06:56;;;;;;;26.10;11.93;;;;;;;;;;6009018;29;20057;-79
2022/01/27 11:10:00;;;;;;;25.75;12.93;;;;;;;;;;6009138;29;20053;-79
2022/01/27 11:13:04;;;;;;;24.80;11.60;;;;;;;;;;6010473;29;20046;-79
2022/01/27 11:16:12;;;;;;;24.50;11.80;;;;;;;;;;6008982;29;20413;-79
2022/01/27 11:19:26;;;;;;;24.73;11.80;;;;;;;;;;6009364;29;20565;-79
2022/01/27 11:22:45;;;;;;;34.40;12.70;;;;;;;;;;6009303;29;20057;-79
2022/01/27 11:25:53;;;;;;;26.30;12.18;;;;;;;;;;6008632;29;20085;-79
2022/01/27 11:28:57;;;;;;;24.08;11.88;;;;;;;;;;6008667;29;20049;-84
2022/01/27 11:32:17;;;;;;;24.00;11.45;;;;;;;;;;6007507;29;20485;-81
2022/01/27 11:35:22;;;;;;;23.10;10.85;;;;;;;;;;5992969;29;20050;-81
2022/01/27 11:38:28;;;;;;;21.95;11.30;;;;;;;;;;6008641;29;20390;-79
2022/01/27 11:41:41;;;;;;;23.33;11.38;;;;;;;;;;6009475;29;20136;-79
2022/01/27 11:44:45;;;;;;;21.58;10.65;;;;;;;;;;6008573;29;20050;-80
2022/01/27 11:48:13;;;;;;;25.08;11.57;;;;;;;;;;6009084;29;20595;-80
2022/01/27 11:51:16;;;;;;;;;;;;;;;;;;6010093;29;20109;-80
2022/01/27 11:54:26;;;;;;;25.30;11.82;;;;;;;;;;6007247;29;19931;-79
2022/01/27 11:57:41;;;;;;;21.95;11.52;;;;;;;;;;6006502;29;20070;-80
2022/01/27 12:01:13;;;;;;;24.98;12.57;;;;;;;;;;6007627;29;20421;-80
2022/01/27 12:04:17;;;;;;;27.52;12.75;;;;;;;;;;6008794;29;20065;-80
2022/01/27 12:07:22;;;;;;;24.88;13.15;;;;;;;;;;6007656;29;20132;-81
2022/01/27 12:10:41;;;;;;;26.63;12.98;;;;;;;;;;6006705;29;20045;-81
2022/01/27 12:14:03;;;;;;;22.08;11.80;;;;;;;;;;6007477;29;20291;-82
2022/01/27 12:17:22;;;;;;;26.42;12.57;;;;;;;;;;6007665;29;20061;-81
2022/01/27 12:20:43;;;;;;;25.52;11.60;;;;;;;;;;6007950;29;20481;-82
2022/01/27 12:24:06;;;;;;;43.10;22.13;;;;;;;;;;6007544;29;20140;-84
2022/01/27 12:27:16;;;;;;;31.27;16.90;;;;;;;;;;6013585;29;20058;-84
2022/01/27 12:30:33;;;;;;;28.98;13.93;;;;;;;;;;6007273;29;20417;-80
2022/01/27 12:33:36;;;;;;;29.60;14.73;;;;;;;;;;5990588;29;20050;-83
2022/01/27 12:36:52;;;;;;;28.75;14.50;;;;;;;;;;6007319;29;20052;-83
2022/01/27 12:39:56;;;;;;;29.75;14.25;;;;;;;;;;6007641;29;20058;-82
2022/01/27 12:43:12;;;;;;;29.30;15.35;;;;;;;;;;5992558;29;20054;-81
2022/01/27 12:46:16;;;;;;;29.17;14.60;;;;;;;;;;5992035;29;20206;-81
2022/01/27 12:49:35;;;;;;;30.75;15.13;;;;;;;;;;6006079;29;20050;-81
2022/01/27 12:52:41;;;;;;;30.15;15.07;;;;;;;;;;6006634;29;20057;-82
2022/01/27 12:55:45;;;;;;;32.97;16.13;;;;;;;;;;6006548;29;20057;-83
2022/01/27 12:58:48;;;;;;;28.50;15.82;;;;;;;;;;6005359;29;20050;-84
2022/01/27 13:02:08;;;;;;;33.00;16.30;;;;;;;;;;6006417;29;20052;-84
2022/01/27 13:05:12;;;;;;;32.83;15.57;;;;;;;;;;6007054;29;20062;-83
2022/01/27 13:08:16;;;;;;;32.78;16.00;;;;;;;;;;6006590;29;20421;-81
2022/01/27 13:11:35;;;;;;;32.72;15.48;;;;;;;;;;6005561;29;20425;-83
2022/01/27 13:15:00;;;;;;;31.10;16.25;;;;;;;;;;5992443;29;20102;-83
2022/01/27 13:18:15;;;;;;;30.38;15.65;;;;;;;;;;6007333;29;20080;-82
2022/01/27 13:21:19;;;;;;;35.30;17.25;;;;;;;;;;6005401;29;20073;-82
2022/01/27 13:24:22;;;;;;;28.65;14.80;;;;;;;;;;6005198;29;20136;-82
2022/01/27 13:27:26;;;;;;;31.75;16.42;;;;;;;;;;6007241;29;20050;-81
2022/01/27 13:30:29;;;;;;;31.83;15.88;;;;;;;;;;5991002;29;20413;-83
2022/01/27 13:33:37;;;;;;;33.72;16.13;;;;;;;;;;5990643;29;20463;-85
2022/01/27 13:36:40;;;;;;;35.00;16.35;;;;;;;;;;6005414;29;20154;-81
2022/01/27 13:41:16;;;;;;;33.35;15.65;;;;;;;;;;6005607;29;20429;-82
2022/01/27 13:43:12;;;;;;;31.95;15.25;;;;;;;;;;5992957;29;20049;-86
2022/01/27 13:46:36;;;;;;;33.03;16.75;;;;;;;;;;6004326;29;20076;-82
2022/01/27 13:49:41;;;;;;;33.85;16.77;;;;;;;;;;5999947;29;20402;-82
2022/01/27 13:52:45;;;;;;;;;;;;;;;;;;6005820;29;20090;-84
2022/01/27 13:56:00;;;;;;;32.15;15.52;;;;;;;;;;6004652;29;19931;-83
2022/01/27 13:59:09;;;;;;;33.28;16.48;;;;;;;;;;6004860;29;20540;-84
2022/01/27 14:02:14;;;;;;;31.23;16.05;;;;;;;;;;6004685;29;20045;-85
2022/01/27 14:05:20;;;;;;;36.43;16.83;;;;;;;;;;6006410;29;20046;-82
2022/01/27 14:08:33;;;;;;;31.98;15.88;;;;;;;;;;6004583;29;20293;-81
2022/01/27 14:11:40;;;;;;;34.00;16.27;;;;;;;;;;6004341;29;20057;-82
2022/01/27 14:14:44;;;;;;;36.13;17.20;;;;;;;;;;6004205;29;20054;-81
2022/01/27 14:17:56;;;;;;;31.98;16.33;;;;;;;;;;6004348;29;20049;-83
2022/01/27 14:21:02;;;;;;;33.15;17.30;;;;;;;;;;6005173;29;20176;-86
2022/01/27 14:24:11;;;;;;;34.33;17.27;;;;;;;;;;6005952;29;20271;-84
2022/01/27 14:27:15;;;;;;;34.80;18.13;;;;;;;;;;6006308;29;20042;-83
2022/01/27 14:30:18;;;;;;;34.55;17.08;;;;;;;;;;6003826;29;20046;-83
2022/01/27 14:33:21;;;;;;;32.70;16.13;;;;;;;;;;6004552;29;20057;-83
2022/01/27 14:36:27;;;;;;;34.33;17.25;;;;;;;;;;6004932;29;20540;-83
2022/01/27 14:39:30;;;;;;;35.17;18.20;;;;;;;;;;6003681;29;20478;-84
2022/01/27 14:42:35;;;;;;;36.22;17.73;;;;;;;;;;6003583;29;20382;-85
2022/01/27 14:45:38;;;;;;;36.00;18.85;;;;;;;;;;6004377;29;20421;-83
2022/01/27 14:49:02;;;;;;;35.55;16.92;;;;;;;;;;6005524;29;20505;-83
2022/01/27 14:52:12;;;;;;;;;;;;;;;;;;6006083;29;20057;-82
2022/01/27 14:55:17;;;;;;;35.13;17.13;;;;;;;;;;6004162;29;19935;-83
2022/01/27 14:58:20;;;;;;;36.05;17.48;;;;;;;;;;6005052;29;20053;-83
2022/01/27 15:01:25;;;;;;;37.47;18.10;;;;;;;;;;6003812;29;20174;-84
2022/01/27 15:04:34;;;;;;;37.88;18.23;;;;;;;;;;6003713;29;20525;-83
2022/01/27 15:07:38;;;;;;;37.85;18.13;;;;;;;;;;6005524;29;20065;-83
2022/01/27 15:10:44;;;;;;;40.30;18.45;;;;;;;;;;6004815;29;20077;-86
2022/01/27 15:13:57;;;;;;;71.47;33.00;;;;;;;;;;6005285;29;20054;-77
2022/01/27 15:20:29;;;;;;;41.88;18.63;;;;;;;;;;6005535;29;20054;-83
2022/01/27 15:23:35;;;;;;;42.10;19.50;;;;;;;;;;6003838;29;20050;-82
2022/01/27 15:26:42;;;;;;;42.45;20.30;;;;;;;;;;6003323;29;20182;-84
2022/01/27 15:29:45;;;;;;;44.17;20.70;;;;;;;;;;6003791;29;20054;-83
2022/01/27 15:32:49;;;;;;;41.47;19.67;;;;;;;;;;6007426;29;20038;-82
2022/01/27 15:35:52;;;;;;;37.95;18.75;;;;;;;;;;6007896;29;20132;-82
2022/01/27 15:38:58;;;;;;;40.15;19.25;;;;;;;;;;6008529;29;20050;-82
2022/01/27 15:42:03;;;;;;;43.30;21.38;;;;;;;;;;6008052;29;20494;-81
2022/01/27 15:45:08;;;;;;;38.83;20.33;;;;;;;;;;6007234;29;20061;-81
2022/01/27 15:48:12;;;;;;;38.22;19.88;;;;;;;;;;6007547;29;20527;-79
2022/01/27 15:51:15;;;;;;;43.85;20.45;;;;;;;;;;6007742;29;20061;-77
2022/01/27 15:54:19;;;;;;;45.97;20.40;;;;;;;;;;6006773;29;20128;-79
2022/01/27 15:57:27;;;;;;;44.10;21.00;;;;;;;;;;6008570;29;20057;-81
2022/01/27 16:00:30;;;;;;;44.35;21.98;;;;;;;;;;6007608;29;20078;-81
2022/01/27 16:03:33;;;;;;;37.42;19.63;;;;;;;;;;6009754;29;20069;-88
2022/01/27 16:06:38;;;;;;;41.00;19.85;;;;;;;;;;6024600;29;20041;-83
2022/01/27 16:09:44;;;;;;;38.58;19.52;;;;;;;;;;6008738;29;20054;-84
2022/01/27 16:12:53;;;;;;;40.00;19.90;;;;;;;;;;5999916;29;20133;-83
2022/01/27 16:15:56;;;;;;;36.38;17.90;;;;;;;;;;6000988;29;20081;-84
2022/01/27 16:18:59;;;;;;;35.63;17.95;;;;;;;;;;5999178;29;20046;-81
2022/01/27 16:22:04;;;;;;;39.88;18.42;;;;;;;;;;6005850;29;20054;-79
2022/01/27 16:25:08;;;;;;;35.58;17.52;;;;;;;;;;6006636;29;20144;-76
2022/01/27 16:28:14;;;;;;;32.90;17.00;;;;;;;;;;6005776;29;20061;-77
2022/01/27 16:31:20;;;;;;;34.35;16.08;;;;;;;;;;6005385;29;20053;-81
2022/01/27 16:34:23;;;;;;;32.50;16.20;;;;;;;;;;6005467;29;20572;-77
2022/01/27 16:37:27;;;;;;;30.35;16.15;;;;;;;;;;6007049;29;20132;-78
2022/01/27 16:40:31;;;;;;;29.40;16.27;;;;;;;;;;6006603;29;20103;-83
2022/01/27 16:43:37;;;;;;;33.92;16.10;;;;;;;;;;6007053;29;20049;-81
2022/01/27 16:46:41;;;;;;;26.63;15.82;;;;;;;;;;6007792;29;20546;-76
2022/01/27 16:50:48;;;;;;;32.30;16.95;;;;;;;;;;5975245;29;20066;-77
2022/01/27 16:53:52;;;;;;;32.80;16.40;;;;;;;;;;5981704;29;20069;-87
2022/01/27 16:56:55;;;;;;;32.00;16.02;;;;;;;;;;5982317;29;20491;-79
2022/01/27 17:00:02;;;;;;;30.95;15.82;;;;;;;;;;5966810;29;20078;-79
2022/01/27 17:03:08;;;;;;;34.17;16.85;;;;;;;;;;5981644;29;20054;-78
2022/01/27 17:06:12;;;;;;;27.83;14.73;;;;;;;;;;5966328;29;20062;-84
2022/01/27 17:09:16;;;;;;;30.25;16.13;;;;;;;;;;5966410;29;20149;-87
2022/01/27 17:12:19;;;;;;;30.27;15.85;;;;;;;;;;5966318;29;20046;-84
2022/01/27 17:15:24;;;;;;;31.73;16.15;;;;;;;;;;5982445;29;20062;-84
2022/01/27 17:18:27;;;;;;;32.73;18.87;;;;;;;;;;5982586;29;20050;-89
2022/01/27 17:21:31;;;;;;;34.08;17.17;;;;;;;;;;6008995;29;20417;-84
2022/01/27 17:24:35;;;;;;;30.63;15.73;;;;;;;;;;6006823;29;20050;-80
2022/01/27 17:27:40;;;;;;;30.77;15.80;;;;;;;;;;6005709;29;20050;-79
2022/01/27 17:30:44;;;;;;;;;;;;;;;;;;6007786;29;20045;-88
2022/01/27 17:33:49;;;;;;;30.80;16.27;;;;;;;;;;6008052;29;20084;-84
2022/01/27 17:36:52;;;;;;;31.55;16.05;;;;;;;;;;6007985;29;20053;-89
2022/01/27 17:39:55;;;;;;;31.35;17.55;;;;;;;;;;6009448;29;20124;-85
2022/01/27 17:43:05;;;;;;;31.10;16.67;;;;;;;;;;6007454;29;20106;-85
2022/01/27 17:46:10;;;;;;;31.25;16.67;;;;;;;;;;6005490;29;20140;-86
2022/01/27 17:49:17;;;;;;;33.55;17.48;;;;;;;;;;6007427;29;20490;-83
2022/01/27 17:52:20;;;;;;;32.95;17.25;;;;;;;;;;6004953;29;20101;-80
2022/01/27 17:55:26;;;;;;;33.85;17.08;;;;;;;;;;6003223;29;20050;-83
2022/01/27 17:58:30;;;;;;;30.45;16.80;;;;;;;;;;6005983;29;20050;-81
2022/01/27 18:01:34;;;;;;;33.30;17.77;;;;;;;;;;6006074;29;20042;-83
2022/01/27 18:04:39;;;;;;;38.47;19.05;;;;;;;;;;6003882;29;20133;-88
2022/01/27 18:07:46;;;;;;;35.58;18.63;;;;;;;;;;6004544;29;20053;-83
2022/01/27 18:10:52;;;;;;;30.52;17.27;;;;;;;;;;6004737;29;20038;-79
2022/01/27 18:13:57;;;;;;;34.33;17.98;;;;;;;;;;6003870;29;20046;-88
2022/01/27 18:17:00;;;;;;;33.72;17.10;;;;;;;;;;6002978;29;20069;-79
2022/01/27 18:20:07;;;;;;;33.67;17.42;;;;;;;;;;6004600;29;20441;-79
2022/01/27 18:23:10;;;;;;;31.58;17.33;;;;;;;;;;6006216;29;20081;-77
2022/01/27 18:26:16;;;;;;;33.05;17.92;;;;;;;;;;6005004;29;20054;-77
2022/01/27 18:29:19;;;;;;;32.47;17.67;;;;;;;;;;6005444;29;20509;-81
2022/01/27 18:32:24;;;;;;;34.58;18.45;;;;;;;;;;6007410;29;20521;-80
2022/01/27 18:35:31;;;;;;;37.30;17.75;;;;;;;;;;6007767;29;20045;-84